Namaste — WDF5206 — position and weather

sailwx.info

Track history (hours):
 
Tides and Currents Weather Stations Pressure Air Temp Water Temp Dewpoint Dewpoint Depression Visibility Wind Speed Wind Dir Waves Ship Positions

Namaste

Owner: NAMASTE YACHT CHARTER INC, Fort Lauderdale, FL. More information available from US FCC via Universal Licensing System and Coast Guard Vessel Documentation Center.

Last reported at 2018-May-06 18:47 UTC. Time now 2018-May-21 07:02 UTC.
Position N 26°20' W 080°05'.
Warning: this ship's position is 14 days out of date.

Length 33 m; draft 1.7 m.

Type: Pleasure craft. MMSI: 367503110.

Date/timePositionNaut miles runAvg speedWind from/ knotsBaromVisibWave heightAir tempDewpointWater temp
2018-May-06 18:47N 26°20' W 080°05'3 5.2
2018-May-06 18:08N 26°17' W 080°05'1 6.2
2018-May-06 17:59N 26°16' W 080°05'3 4.5
2018-May-06 17:24N 26°14' W 080°06'2 5.8
2018-May-06 16:58N 26°11' W 080°06'1 2.6
2018-May-06 16:30N 26°10' W 080°06'0 0.1
2018-May-06 15:57N 26°10' W 080°06'0 0.0
2018-May-06 15:30N 26°10' W 080°06'0 0.0
2018-May-06 15:00N 26°10' W 080°06'0 0.0
2018-May-06 14:30N 26°10' W 080°06'0 0.0
2018-May-06 14:00N 26°10' W 080°06'0 0.0
2018-May-06 13:30N 26°10' W 080°06'0 0.0
2018-May-06 13:00N 26°10' W 080°06'0 0.0
2018-May-06 12:21N 26°10' W 080°06'0 0.0
2018-May-06 11:57N 26°10' W 080°06'0 0.0
2018-May-06 11:30N 26°10' W 080°06'0 0.0
2018-May-06 11:00N 26°10' W 080°06'0 0.0
2018-May-06 10:30N 26°10' W 080°06'0 0.0
2018-May-06 10:00N 26°10' W 080°06'0 0.0
2018-May-06 09:30N 26°10' W 080°06'0 0.0
2018-May-06 09:00N 26°10' W 080°06'0 0.0
2018-May-06 08:30N 26°10' W 080°06'0 0.1
2018-May-06 07:57N 26°10' W 080°06'0 0.1
2018-May-06 07:24N 26°10' W 080°06'0 0.0
2018-May-06 07:00N 26°10' W 080°06'0 0.0
2018-May-06 06:30N 26°10' W 080°06'0 0.0
2018-May-06 05:57N 26°10' W 080°06'0 0.0
2018-May-06 05:30N 26°10' W 080°06'0 0.0
2018-May-06 05:00N 26°10' W 080°06'0 0.0
2018-May-06 04:27N 26°10' W 080°06'0 0.1
2018-May-06 04:00N 26°10' W 080°06'0 0.1
2018-May-06 03:30N 26°10' W 080°06'0 0.0
2018-May-06 03:00N 26°10' W 080°06'0 0.0
2018-May-06 02:30N 26°10' W 080°06'0 0.0
2018-May-06 02:00N 26°10' W 080°06'0 0.0
2018-May-06 01:30N 26°10' W 080°06'0 0.0
2018-May-06 01:00N 26°10' W 080°06'0 0.0
2018-May-06 00:27N 26°10' W 080°06'0 0.0
2018-May-06 00:00N 26°10' W 080°06'0 0.0
2018-May-05 23:30N 26°10' W 080°06'2 3.7
2018-May-05 22:58N 26°08' W 080°07'2 3.3
2018-May-05 22:30N 26°07' W 080°07'2 3.8
2018-May-05 22:00N 26°08' W 080°06'2 2.7
2018-May-05 21:27N 26°10' W 080°06'0 0.0
2018-May-05 21:00N 26°10' W 080°06'0 0.0
2018-May-05 20:30N 26°10' W 080°06'0 0.0
2018-May-05 20:00N 26°10' W 080°06'0 0.0
2018-May-05 19:30N 26°10' W 080°06'0 0.0
2018-May-05 18:57N 26°10' W 080°06'0 0.0
2018-May-05 18:30N 26°10' W 080°06'0 0.0
2018-May-05 17:57N 26°10' W 080°06'0 0.0
2018-May-05 17:30N 26°10' W 080°06'0 0.0
2018-May-05 17:00N 26°10' W 080°06'0 0.0
2018-May-05 16:30N 26°10' W 080°06'0 0.0
2018-May-05 16:00N 26°10' W 080°06'0 0.0
2018-May-05 15:30N 26°10' W 080°06'0 0.0
2018-May-05 15:00N 26°10' W 080°06'0 0.0
2018-May-05 14:30N 26°10' W 080°06'0 0.0
2018-May-05 14:00N 26°10' W 080°06'0 0.0
2018-May-05 13:30N 26°10' W 080°06'0 0.0
2018-May-05 13:00N 26°10' W 080°06'0 0.0
2018-May-05 12:30N 26°10' W 080°06'0 0.0
2018-May-05 12:00N 26°10' W 080°06'0 0.0
2018-May-05 11:30N 26°10' W 080°06'0 0.0
2018-May-05 11:00N 26°10' W 080°06'0 0.0
2018-May-05 10:30N 26°10' W 080°06'0 0.0
2018-May-05 10:00N 26°10' W 080°06'0 0.0
2018-May-05 09:30N 26°10' W 080°06'0 0.0
2018-May-05 09:00N 26°10' W 080°06'0 0.0
2018-May-05 08:27N 26°10' W 080°06'0 0.0
2018-May-05 08:00N 26°10' W 080°06'0 0.0
2018-May-05 07:30N 26°10' W 080°06'0 0.0
2018-May-05 07:00N 26°10' W 080°06'0 0.0
2018-May-05 06:30N 26°10' W 080°06'0 0.0
2018-May-05 06:00N 26°10' W 080°06'0 0.1
2018-May-05 05:30N 26°10' W 080°06'0 0.0
2018-May-05 05:00N 26°10' W 080°06'0 0.0
2018-May-05 04:30N 26°10' W 080°06'0 0.0
2018-May-05 03:52N 26°10' W 080°06'0 0.0
2018-May-05 03:25N 26°10' W 080°06'2 3.4
2018-May-05 02:55N 26°12' W 080°06'  
Track history (hours):
 
Tides and Currents Weather Stations Pressure Air Temp Water Temp Dewpoint Dewpoint Depression Visibility Wind Speed Wind Dir Waves Ship Positions

Namaste

Owner: NAMASTE YACHT CHARTER INC, Fort Lauderdale, FL. More information available from US FCC via Universal Licensing System and Coast Guard Vessel Documentation Center.

Last reported at 2018-May-06 18:47 UTC. Time now 2018-May-21 07:02 UTC.
Position N 26°20' W 080°05'.
Warning: this ship's position is 14 days out of date.

Length 33 m; draft 1.7 m.

Type: Pleasure craft. MMSI: 367503110.

Date/timePositionNaut miles runAvg speedWind from/ knotsBaromVisibWave heightAir tempDewpointWater temp
2018-May-06 18:47N 26°20' W 080°05'3 5.2
2018-May-06 18:08N 26°17' W 080°05'1 6.2
2018-May-06 17:59N 26°16' W 080°05'3 4.5
2018-May-06 17:24N 26°14' W 080°06'2 5.8
2018-May-06 16:58N 26°11' W 080°06'1 2.6
2018-May-06 16:30N 26°10' W 080°06'0 0.1
2018-May-06 15:57N 26°10' W 080°06'0 0.0
2018-May-06 15:30N 26°10' W 080°06'0 0.0
2018-May-06 15:00N 26°10' W 080°06'0 0.0
2018-May-06 14:30N 26°10' W 080°06'0 0.0
2018-May-06 14:00N 26°10' W 080°06'0 0.0
2018-May-06 13:30N 26°10' W 080°06'0 0.0
2018-May-06 13:00N 26°10' W 080°06'0 0.0
2018-May-06 12:21N 26°10' W 080°06'0 0.0
2018-May-06 11:57N 26°10' W 080°06'0 0.0
2018-May-06 11:30N 26°10' W 080°06'0 0.0
2018-May-06 11:00N 26°10' W 080°06'0 0.0
2018-May-06 10:30N 26°10' W 080°06'0 0.0
2018-May-06 10:00N 26°10' W 080°06'0 0.0
2018-May-06 09:30N 26°10' W 080°06'0 0.0
2018-May-06 09:00N 26°10' W 080°06'0 0.0
2018-May-06 08:30N 26°10' W 080°06'0 0.1
2018-May-06 07:57N 26°10' W 080°06'0 0.1
2018-May-06 07:24N 26°10' W 080°06'0 0.0
2018-May-06 07:00N 26°10' W 080°06'0 0.0
2018-May-06 06:30N 26°10' W 080°06'0 0.0
2018-May-06 05:57N 26°10' W 080°06'0 0.0
2018-May-06 05:30N 26°10' W 080°06'0 0.0
2018-May-06 05:00N 26°10' W 080°06'0 0.0
2018-May-06 04:27N 26°10' W 080°06'0 0.1
2018-May-06 04:00N 26°10' W 080°06'0 0.1
2018-May-06 03:30N 26°10' W 080°06'0 0.0
2018-May-06 03:00N 26°10' W 080°06'0 0.0
2018-May-06 02:30N 26°10' W 080°06'0 0.0
2018-May-06 02:00N 26°10' W 080°06'0 0.0
2018-May-06 01:30N 26°10' W 080°06'0 0.0
2018-May-06 01:00N 26°10' W 080°06'0 0.0
2018-May-06 00:27N 26°10' W 080°06'0 0.0
2018-May-06 00:00N 26°10' W 080°06'0 0.0
2018-May-05 23:30N 26°10' W 080°06'2 3.7
2018-May-05 22:58N 26°08' W 080°07'2 3.3
2018-May-05 22:30N 26°07' W 080°07'2 3.8
2018-May-05 22:00N 26°08' W 080°06'2 2.7
2018-May-05 21:27N 26°10' W 080°06'0 0.0
2018-May-05 21:00N 26°10' W 080°06'0 0.0
2018-May-05 20:30N 26°10' W 080°06'0 0.0
2018-May-05 20:00N 26°10' W 080°06'0 0.0
2018-May-05 19:30N 26°10' W 080°06'0 0.0
2018-May-05 18:57N 26°10' W 080°06'0 0.0
2018-May-05 18:30N 26°10' W 080°06'0 0.0
2018-May-05 17:57N 26°10' W 080°06'0 0.0
2018-May-05 17:30N 26°10' W 080°06'0 0.0
2018-May-05 17:00N 26°10' W 080°06'0 0.0
2018-May-05 16:30N 26°10' W 080°06'0 0.0
2018-May-05 16:00N 26°10' W 080°06'0 0.0
2018-May-05 15:30N 26°10' W 080°06'0 0.0
2018-May-05 15:00N 26°10' W 080°06'0 0.0
2018-May-05 14:30N 26°10' W 080°06'0 0.0
2018-May-05 14:00N 26°10' W 080°06'0 0.0
2018-May-05 13:30N 26°10' W 080°06'0 0.0
2018-May-05 13:00N 26°10' W 080°06'0 0.0
2018-May-05 12:30N 26°10' W 080°06'0 0.0
2018-May-05 12:00N 26°10' W 080°06'0 0.0
2018-May-05 11:30N 26°10' W 080°06'0 0.0
2018-May-05 11:00N 26°10' W 080°06'0 0.0
2018-May-05 10:30N 26°10' W 080°06'0 0.0
2018-May-05 10:00N 26°10' W 080°06'0 0.0
2018-May-05 09:30N 26°10' W 080°06'0 0.0
2018-May-05 09:00N 26°10' W 080°06'0 0.0
2018-May-05 08:27N 26°10' W 080°06'0 0.0
2018-May-05 08:00N 26°10' W 080°06'0 0.0
2018-May-05 07:30N 26°10' W 080°06'0 0.0
2018-May-05 07:00N 26°10' W 080°06'0 0.0
2018-May-05 06:30N 26°10' W 080°06'0 0.0
2018-May-05 06:00N 26°10' W 080°06'0 0.1
2018-May-05 05:30N 26°10' W 080°06'0 0.0
2018-May-05 05:00N 26°10' W 080°06'0 0.0
2018-May-05 04:30N 26°10' W 080°06'0 0.0
2018-May-05 03:52N 26°10' W 080°06'0 0.0
2018-May-05 03:25N 26°10' W 080°06'2 3.4
2018-May-05 02:55N 26°12' W 080°06'  

Dump ship's entire track history